sensor_id;sensor_type;location;lat;lon;timestamp;P1;durP1;ratioP1;P2;durP2;ratioP2
44720;SDS011;30450;52.534;13.398;2023-02-22T06:59:30;26.40;;;5.07;;
44720;SDS011;30450;52.534;13.398;2023-02-22T07:01:56;21.50;;;5.72;;
44720;SDS011;30450;52.534;13.398;2023-02-22T07:04:23;28.05;;;6.75;;
44720;SDS011;30450;52.534;13.398;2023-02-22T07:06:49;31.40;;;6.18;;
44720;SDS011;30450;52.534;13.398;2023-02-22T07:09:15;34.63;;;8.00;;
44720;SDS011;30450;52.534;13.398;2023-02-22T07:11:42;34.13;;;8.15;;
44720;SDS011;30450;52.534;13.398;2023-02-22T07:14:08;39.90;;;7.78;;
44720;SDS011;30450;52.534;13.398;2023-02-22T07:16:34;31.08;;;7.28;;
44720;SDS011;30450;52.534;13.398;2023-02-22T07:19:00;37.10;;;7.25;;
44720;SDS011;30450;52.534;13.398;2023-02-22T07:21:26;23.92;;;6.20;;
44720;SDS011;30450;52.534;13.398;2023-02-22T07:23:53;26.85;;;6.53;;
44720;SDS011;30450;52.534;13.398;2023-02-22T07:26:19;28.50;;;6.35;;
44720;SDS011;30450;52.534;13.398;2023-02-22T07:28:46;31.15;;;7.72;;
44720;SDS011;30450;52.534;13.398;2023-02-22T07:31:12;34.10;;;8.07;;
44720;SDS011;30450;52.534;13.398;2023-02-22T07:33:37;27.25;;;7.55;;
44720;SDS011;30450;52.534;13.398;2023-02-22T07:36:03;26.25;;;7.30;;
44720;SDS011;30450;52.534;13.398;2023-02-22T07:38:30;27.98;;;8.55;;
44720;SDS011;30450;52.534;13.398;2023-02-22T07:40:56;41.28;;;7.35;;
44720;SDS011;30450;52.534;13.398;2023-02-22T07:43:26;31.48;;;8.88;;
44720;SDS011;30450;52.534;13.398;2023-02-22T07:45:53;37.30;;;7.65;;
44720;SDS011;30450;52.534;13.398;2023-02-22T07:48:20;34.67;;;8.38;;
44720;SDS011;30450;52.534;13.398;2023-02-22T07:50:46;27.83;;;7.43;;
44720;SDS011;30450;52.534;13.398;2023-02-22T07:53:13;36.95;;;8.63;;
44720;SDS011;30450;52.534;13.398;2023-02-22T07:55:39;43.45;;;10.65;;
44720;SDS011;30450;52.534;13.398;2023-02-22T07:58:06;32.00;;;8.25;;
44720;SDS011;30450;52.534;13.398;2023-02-22T08:00:36;32.00;;;8.82;;
44720;SDS011;30450;52.534;13.398;2023-02-22T08:03:03;26.48;;;8.18;;
44720;SDS011;30450;52.534;13.398;2023-02-22T08:05:29;27.75;;;7.95;;
44720;SDS011;30450;52.534;13.398;2023-02-22T08:07:55;28.65;;;8.13;;
44720;SDS011;30450;52.534;13.398;2023-02-22T08:10:21;33.95;;;9.65;;
44720;SDS011;30450;52.534;13.398;2023-02-22T08:12:48;32.65;;;7.03;;
44720;SDS011;30450;52.534;13.398;2023-02-22T08:15:15;32.13;;;7.30;;
44720;SDS011;30450;52.534;13.398;2023-02-22T08:17:42;30.95;;;7.40;;
44720;SDS011;30450;52.534;13.398;2023-02-22T08:20:07;32.15;;;7.70;;
44720;SDS011;30450;52.534;13.398;2023-02-22T08:22:33;23.92;;;6.50;;
44720;SDS011;30450;52.534;13.398;2023-02-22T08:24:59;28.80;;;6.90;;
44720;SDS011;30450;52.534;13.398;2023-02-22T08:27:26;42.92;;;8.27;;
44720;SDS011;30450;52.534;13.398;2023-02-22T08:29:52;28.40;;;7.53;;
44720;SDS011;30450;52.534;13.398;2023-02-22T08:32:18;42.88;;;8.18;;
44720;SDS011;30450;52.534;13.398;2023-02-22T08:34:44;30.35;;;6.50;;
44720;SDS011;30450;52.534;13.398;2023-02-22T08:37:09;26.52;;;6.93;;
44720;SDS011;30450;52.534;13.398;2023-02-22T08:39:35;33.35;;;6.65;;
44720;SDS011;30450;52.534;13.398;2023-02-22T08:42:01;30.00;;;6.40;;
44720;SDS011;30450;52.534;13.398;2023-02-22T08:44:26;28.75;;;6.13;;
44720;SDS011;30450;52.534;13.398;2023-02-22T08:46:53;26.70;;;6.90;;
44720;SDS011;30450;52.534;13.398;2023-02-22T08:49:19;34.25;;;7.47;;
44720;SDS011;30450;52.534;13.398;2023-02-22T08:51:45;31.02;;;6.25;;
44720;SDS011;30450;52.534;13.398;2023-02-22T08:54:11;31.63;;;6.88;;
44720;SDS011;30450;52.534;13.398;2023-02-22T08:56:37;26.60;;;7.25;;
44720;SDS011;30450;52.534;13.398;2023-02-22T08:59:03;25.55;;;5.68;;
44720;SDS011;30450;52.534;13.398;2023-02-22T09:01:28;30.25;;;6.28;;
44720;SDS011;30450;52.534;13.398;2023-02-22T09:03:54;26.75;;;7.28;;
44720;SDS011;30450;52.534;13.398;2023-02-22T09:06:21;21.73;;;5.47;;
44720;SDS011;30450;52.534;13.398;2023-02-22T09:08:47;36.47;;;7.75;;
44720;SDS011;30450;52.534;13.398;2023-02-22T09:11:13;27.20;;;5.60;;
44720;SDS011;30450;52.534;13.398;2023-02-22T09:13:39;36.10;;;7.35;;
44720;SDS011;30450;52.534;13.398;2023-02-22T09:16:05;33.97;;;7.20;;
44720;SDS011;30450;52.534;13.398;2023-02-22T09:18:30;24.75;;;6.13;;
44720;SDS011;30450;52.534;13.398;2023-02-22T09:20:57;29.08;;;6.70;;
44720;SDS011;30450;52.534;13.398;2023-02-22T09:23:45;26.63;;;6.30;;
44720;SDS011;30450;52.534;13.398;2023-02-22T09:26:13;34.53;;;8.20;;
44720;SDS011;30450;52.534;13.398;2023-02-22T09:28:40;33.63;;;6.00;;
44720;SDS011;30450;52.534;13.398;2023-02-22T09:31:06;27.83;;;6.72;;
44720;SDS011;30450;52.534;13.398;2023-02-22T09:33:32;27.83;;;6.78;;
44720;SDS011;30450;52.534;13.398;2023-02-22T09:36:01;26.60;;;6.72;;
44720;SDS011;30450;52.534;13.398;2023-02-22T09:38:27;24.45;;;7.00;;
44720;SDS011;30450;52.534;13.398;2023-02-22T09:40:57;28.30;;;5.63;;
44720;SDS011;30450;52.534;13.398;2023-02-22T09:43:48;21.00;;;5.40;;
44720;SDS011;30450;52.534;13.398;2023-02-22T09:48:50;26.02;;;5.95;;
44720;SDS011;30450;52.534;13.398;2023-02-22T09:51:20;30.10;;;7.07;;
44720;SDS011;30450;52.534;13.398;2023-02-22T09:53:47;22.10;;;5.22;;
44720;SDS011;30450;52.534;13.398;2023-02-22T09:56:15;35.28;;;6.28;;
44720;SDS011;30450;52.534;13.398;2023-02-22T09:58:43;28.55;;;5.45;;
44720;SDS011;30450;52.534;13.398;2023-02-22T10:03:58;33.70;;;6.10;;
44720;SDS011;30450;52.534;13.398;2023-02-22T10:06:24;31.27;;;5.70;;
44720;SDS011;30450;52.534;13.398;2023-02-22T10:08:51;32.05;;;6.10;;
44720;SDS011;30450;52.534;13.398;2023-02-22T10:14:09;31.00;;;6.07;;
44720;SDS011;30450;52.534;13.398;2023-02-22T10:16:48;25.25;;;6.43;;
44720;SDS011;30450;52.534;13.398;2023-02-22T10:19:23;35.60;;;6.50;;
44720;SDS011;30450;52.534;13.398;2023-02-22T10:26:54;16.75;;;4.55;;
44720;SDS011;30450;52.534;13.398;2023-02-22T10:32:17;42.47;;;7.20;;
44720;SDS011;30450;52.534;13.398;2023-02-22T10:34:47;29.15;;;6.47;;
44720;SDS011;30450;52.534;13.398;2023-02-22T10:37:27;30.30;;;5.55;;
44720;SDS011;30450;52.534;13.398;2023-02-22T10:40:14;31.30;;;5.72;;
44720;SDS011;30450;52.534;13.398;2023-02-22T10:42:45;25.70;;;5.03;;
44720;SDS011;30450;52.534;13.398;2023-02-22T10:45:23;27.85;;;5.40;;
44720;SDS011;30450;52.534;13.398;2023-02-22T10:47:50;22.10;;;5.78;;
44720;SDS011;30450;52.534;13.398;2023-02-22T10:50:19;25.40;;;5.50;;
44720;SDS011;30450;52.534;13.398;2023-02-22T10:52:45;24.45;;;5.22;;
44720;SDS011;30450;52.534;13.398;2023-02-22T10:55:12;23.40;;;4.60;;
44720;SDS011;30450;52.534;13.398;2023-02-22T10:57:38;27.53;;;5.53;;
44720;SDS011;30450;52.534;13.398;2023-02-22T11:02:49;23.23;;;4.65;;
44720;SDS011;30450;52.534;13.398;2023-02-22T11:05:25;20.08;;;4.65;;
44720;SDS011;30450;52.534;13.398;2023-02-22T11:07:52;32.15;;;5.20;;
44720;SDS011;30450;52.534;13.398;2023-02-22T11:10:39;25.73;;;4.82;;
44720;SDS011;30450;52.534;13.398;2023-02-22T11:13:25;26.83;;;5.07;;
44720;SDS011;30450;52.534;13.398;2023-02-22T11:15:52;33.53;;;5.05;;
44720;SDS011;30450;52.534;13.398;2023-02-22T11:18:21;18.90;;;4.75;;
44720;SDS011;30450;52.534;13.398;2023-02-22T11:20:48;29.27;;;5.90;;
44720;SDS011;30450;52.534;13.398;2023-02-22T11:23:22;19.77;;;4.45;;
44720;SDS011;30450;52.534;13.398;2023-02-22T11:25:48;26.58;;;6.13;;
44720;SDS011;30450;52.534;13.398;2023-02-22T11:28:18;21.30;;;4.43;;
44720;SDS011;30450;52.534;13.398;2023-02-22T11:30:45;16.35;;;4.85;;
44720;SDS011;30450;52.534;13.398;2023-02-22T11:35:50;24.52;;;4.95;;
44720;SDS011;30450;52.534;13.398;2023-02-22T11:38:24;20.55;;;5.20;;
44720;SDS011;30450;52.534;13.398;2023-02-22T11:41:06;26.48;;;5.07;;
44720;SDS011;30450;52.534;13.398;2023-02-22T11:43:33;25.08;;;5.63;;
44720;SDS011;30450;52.534;13.398;2023-02-22T11:46:33;31.33;;;6.03;;
44720;SDS011;30450;52.534;13.398;2023-02-22T12:02:18;25.95;;;5.25;;
44720;SDS011;30450;52.534;13.398;2023-02-22T12:07:15;27.33;;;5.65;;
44720;SDS011;30450;52.534;13.398;2023-02-22T12:09:47;24.30;;;4.47;;
44720;SDS011;30450;52.534;13.398;2023-02-22T12:12:20;18.85;;;5.00;;
44720;SDS011;30450;52.534;13.398;2023-02-22T12:15:04;23.13;;;5.32;;
44720;SDS011;30450;52.534;13.398;2023-02-22T12:17:39;26.65;;;4.85;;
44720;SDS011;30450;52.534;13.398;2023-02-22T12:20:17;19.58;;;5.03;;
44720;SDS011;30450;52.534;13.398;2023-02-22T12:22:52;20.58;;;4.57;;
44720;SDS011;30450;52.534;13.398;2023-02-22T12:25:21;22.20;;;4.10;;
44720;SDS011;30450;52.534;13.398;2023-02-22T12:30:18;23.45;;;4.22;;
44720;SDS011;30450;52.534;13.398;2023-02-22T12:32:52;19.50;;;4.90;;
44720;SDS011;30450;52.534;13.398;2023-02-22T12:35:22;17.70;;;4.78;;
44720;SDS011;30450;52.534;13.398;2023-02-22T12:40:55;25.65;;;5.07;;
44720;SDS011;30450;52.534;13.398;2023-02-22T12:43:27;26.55;;;5.68;;
44720;SDS011;30450;52.534;13.398;2023-02-22T12:46:11;25.13;;;4.95;;
44720;SDS011;30450;52.534;13.398;2023-02-22T12:48:52;26.90;;;4.32;;
44720;SDS011;30450;52.534;13.398;2023-02-22T12:51:37;16.35;;;5.10;;
44720;SDS011;30450;52.534;13.398;2023-02-22T12:54:20;23.42;;;4.35;;
44720;SDS011;30450;52.534;13.398;2023-02-22T12:56:52;23.33;;;6.03;;
44720;SDS011;30450;52.534;13.398;2023-02-22T13:01:49;32.13;;;5.63;;
44720;SDS011;30450;52.534;13.398;2023-02-22T13:04:15;17.10;;;3.95;;
44720;SDS011;30450;52.534;13.398;2023-02-22T13:11:57;16.67;;;3.70;;
44720;SDS011;30450;52.534;13.398;2023-02-22T13:14:30;19.73;;;4.70;;
44720;SDS011;30450;52.534;13.398;2023-02-22T13:22:23;26.20;;;5.38;;
44720;SDS011;30450;52.534;13.398;2023-02-22T13:27:22;18.20;;;4.57;;
44720;SDS011;30450;52.534;13.398;2023-02-22T13:29:51;26.90;;;4.72;;
44720;SDS011;30450;52.534;13.398;2023-02-22T13:48:00;19.15;;;3.78;;
44720;SDS011;30450;52.534;13.398;2023-02-22T13:50:34;14.43;;;3.65;;
44720;SDS011;30450;52.534;13.398;2023-02-22T13:53:03;21.20;;;4.13;;
44720;SDS011;30450;52.534;13.398;2023-02-22T13:55:30;20.38;;;4.50;;
44720;SDS011;30450;52.534;13.398;2023-02-22T14:00:38;22.55;;;3.83;;
44720;SDS011;30450;52.534;13.398;2023-02-22T14:13:14;23.08;;;3.58;;
44720;SDS011;30450;52.534;13.398;2023-02-22T14:16:15;19.45;;;4.45;;
44720;SDS011;30450;52.534;13.398;2023-02-22T14:18:40;19.83;;;3.92;;
44720;SDS011;30450;52.534;13.398;2023-02-22T14:21:07;17.83;;;4.38;;
44720;SDS011;30450;52.534;13.398;2023-02-22T14:23:35;13.95;;;3.95;;
44720;SDS011;30450;52.534;13.398;2023-02-22T14:31:18;20.08;;;3.90;;
44720;SDS011;30450;52.534;13.398;2023-02-22T14:36:20;13.85;;;2.80;;
44720;SDS011;30450;52.534;13.398;2023-02-22T14:38:47;18.17;;;3.75;;
44720;SDS011;30450;52.534;13.398;2023-02-22T14:41:13;24.73;;;4.18;;
44720;SDS011;30450;52.534;13.398;2023-02-22T14:43:41;20.65;;;3.75;;
44720;SDS011;30450;52.534;13.398;2023-02-22T14:46:08;20.65;;;3.97;;
44720;SDS011;30450;52.534;13.398;2023-02-22T14:48:39;12.60;;;3.25;;
44720;SDS011;30450;52.534;13.398;2023-02-22T14:53:45;22.08;;;4.40;;
44720;SDS011;30450;52.534;13.398;2023-02-22T14:56:23;20.10;;;3.78;;
44720;SDS011;30450;52.534;13.398;2023-02-22T15:01:24;20.48;;;4.30;;
44720;SDS011;30450;52.534;13.398;2023-02-22T15:03:51;15.07;;;3.58;;
44720;SDS011;30450;52.534;13.398;2023-02-22T15:06:26;20.45;;;4.00;;
44720;SDS011;30450;52.534;13.398;2023-02-22T15:14:31;23.45;;;4.70;;
44720;SDS011;30450;52.534;13.398;2023-02-22T15:16:58;26.95;;;5.80;;
44720;SDS011;30450;52.534;13.398;2023-02-22T15:19:26;20.00;;;4.22;;
44720;SDS011;30450;52.534;13.398;2023-02-22T15:21:53;18.70;;;3.67;;
44720;SDS011;30450;52.534;13.398;2023-02-22T15:24:29;12.80;;;3.78;;
44720;SDS011;30450;52.534;13.398;2023-02-22T15:26:55;22.60;;;4.30;;
44720;SDS011;30450;52.534;13.398;2023-02-22T15:29:31;16.85;;;4.35;;
44720;SDS011;30450;52.534;13.398;2023-02-22T15:31:59;18.63;;;3.63;;
44720;SDS011;30450;52.534;13.398;2023-02-22T15:34:29;20.10;;;3.58;;
44720;SDS011;30450;52.534;13.398;2023-02-22T15:36:55;17.80;;;4.03;;
44720;SDS011;30450;52.534;13.398;2023-02-22T15:39:31;18.73;;;4.60;;
44720;SDS011;30450;52.534;13.398;2023-02-22T15:42:09;23.80;;;4.85;;
44720;SDS011;30450;52.534;13.398;2023-02-22T15:44:40;24.83;;;3.97;;
44720;SDS011;30450;52.534;13.398;2023-02-22T15:47:10;32.05;;;5.97;;
44720;SDS011;30450;52.534;13.398;2023-02-22T15:49:37;15.38;;;3.75;;
44720;SDS011;30450;52.534;13.398;2023-02-22T15:52:05;25.13;;;4.80;;
44720;SDS011;30450;52.534;13.398;2023-02-22T15:54:38;15.45;;;4.30;;
44720;SDS011;30450;52.534;13.398;2023-02-22T15:57:25;21.13;;;4.35;;
44720;SDS011;30450;52.534;13.398;2023-02-22T15:59:54;16.73;;;3.78;;
44720;SDS011;30450;52.534;13.398;2023-02-22T16:04:47;19.27;;;3.70;;
44720;SDS011;30450;52.534;13.398;2023-02-22T16:07:13;21.15;;;4.38;;
44720;SDS011;30450;52.534;13.398;2023-02-22T16:09:46;18.67;;;4.22;;
44720;SDS011;30450;52.534;13.398;2023-02-22T16:14:44;16.88;;;3.50;;
44720;SDS011;30450;52.534;13.398;2023-02-22T16:22:44;17.40;;;4.13;;
44720;SDS011;30450;52.534;13.398;2023-02-22T16:27:50;24.50;;;4.43;;
44720;SDS011;30450;52.534;13.398;2023-02-22T16:32:46;20.75;;;4.15;;
44720;SDS011;30450;52.534;13.398;2023-02-22T16:35:12;19.33;;;4.50;;
44720;SDS011;30450;52.534;13.398;2023-02-22T16:40:29;14.20;;;3.25;;
44720;SDS011;30450;52.534;13.398;2023-02-22T16:42:57;19.65;;;4.20;;
44720;SDS011;30450;52.534;13.398;2023-02-22T16:45:23;22.60;;;4.15;;
44720;SDS011;30450;52.534;13.398;2023-02-22T16:47:50;24.55;;;4.28;;
44720;SDS011;30450;52.534;13.398;2023-02-22T16:50:18;14.18;;;4.20;;
44720;SDS011;30450;52.534;13.398;2023-02-22T16:52:44;28.63;;;4.90;;
44720;SDS011;30450;52.534;13.398;2023-02-22T16:55:14;22.23;;;3.83;;
44720;SDS011;30450;52.534;13.398;2023-02-22T16:57:40;16.00;;;4.10;;
44720;SDS011;30450;52.534;13.398;2023-02-22T17:00:11;19.00;;;4.67;;
44720;SDS011;30450;52.534;13.398;2023-02-22T17:02:38;20.02;;;4.15;;
44720;SDS011;30450;52.534;13.398;2023-02-22T17:05:05;19.80;;;3.88;;
44720;SDS011;30450;52.534;13.398;2023-02-22T17:09:58;21.98;;;4.15;;
44720;SDS011;30450;52.534;13.398;2023-02-22T17:12:24;19.83;;;4.07;;
44720;SDS011;30450;52.534;13.398;2023-02-22T17:14:50;21.88;;;6.50;;
44720;SDS011;30450;52.534;13.398;2023-02-22T17:17:16;20.27;;;4.35;;
44720;SDS011;30450;52.534;13.398;2023-02-22T17:19:42;24.63;;;6.07;;
44720;SDS011;30450;52.534;13.398;2023-02-22T17:22:20;16.15;;;4.07;;
44720;SDS011;30450;52.534;13.398;2023-02-22T17:24:46;20.15;;;4.05;;
44720;SDS011;30450;52.534;13.398;2023-02-22T17:27:15;15.73;;;4.13;;
44720;SDS011;30450;52.534;13.398;2023-02-22T17:29:40;12.60;;;3.47;;
44720;SDS011;30450;52.534;13.398;2023-02-22T17:32:06;21.83;;;4.63;;
44720;SDS011;30450;52.534;13.398;2023-02-22T17:34:32;12.07;;;3.28;;
44720;SDS011;30450;52.534;13.398;2023-02-22T17:36:58;22.45;;;4.72;;
44720;SDS011;30450;52.534;13.398;2023-02-22T17:39:24;20.83;;;4.20;;
44720;SDS011;30450;52.534;13.398;2023-02-22T17:41:51;21.25;;;3.90;;
44720;SDS011;30450;52.534;13.398;2023-02-22T17:44:23;14.63;;;3.65;;
44720;SDS011;30450;52.534;13.398;2023-02-22T17:46:48;14.75;;;4.80;;
44720;SDS011;30450;52.534;13.398;2023-02-22T17:49:14;19.65;;;5.22;;
44720;SDS011;30450;52.534;13.398;2023-02-22T17:51:40;19.80;;;4.28;;
44720;SDS011;30450;52.534;13.398;2023-02-22T17:54:06;12.32;;;3.22;;
44720;SDS011;30450;52.534;13.398;2023-02-22T17:56:31;13.95;;;3.13;;
44720;SDS011;30450;52.534;13.398;2023-02-22T17:58:57;14.35;;;4.00;;
44720;SDS011;30450;52.534;13.398;2023-02-22T18:01:30;14.25;;;3.78;;
44720;SDS011;30450;52.534;13.398;2023-02-22T18:03:57;20.50;;;4.43;;
44720;SDS011;30450;52.534;13.398;2023-02-22T18:06:24;17.95;;;4.22;;
44720;SDS011;30450;52.534;13.398;2023-02-22T18:08:51;11.80;;;4.55;;
44720;SDS011;30450;52.534;13.398;2023-02-22T18:11:18;14.77;;;3.55;;
44720;SDS011;30450;52.534;13.398;2023-02-22T18:13:45;18.95;;;4.93;;
44720;SDS011;30450;52.534;13.398;2023-02-22T18:16:11;14.95;;;3.70;;
44720;SDS011;30450;52.534;13.398;2023-02-22T18:18:37;20.67;;;4.97;;
44720;SDS011;30450;52.534;13.398;2023-02-22T18:21:03;18.10;;;4.05;;
44720;SDS011;30450;52.534;13.398;2023-02-22T18:23:31;18.17;;;4.63;;
44720;SDS011;30450;52.534;13.398;2023-02-22T18:25:58;15.70;;;3.83;;
44720;SDS011;30450;52.534;13.398;2023-02-22T18:28:24;17.15;;;4.57;;
44720;SDS011;30450;52.534;13.398;2023-02-22T18:30:50;20.95;;;4.70;;
44720;SDS011;30450;52.534;13.398;2023-02-22T18:33:16;15.63;;;3.90;;
44720;SDS011;30450;52.534;13.398;2023-02-22T18:35:46;20.23;;;3.78;;
44720;SDS011;30450;52.534;13.398;2023-02-22T18:40:39;17.38;;;3.88;;
44720;SDS011;30450;52.534;13.398;2023-02-22T18:43:07;13.93;;;4.40;;
44720;SDS011;30450;52.534;13.398;2023-02-22T18:45:33;18.63;;;4.15;;
44720;SDS011;30450;52.534;13.398;2023-02-22T18:48:00;15.30;;;4.35;;
44720;SDS011;30450;52.534;13.398;2023-02-22T18:50:26;14.65;;;3.90;;
44720;SDS011;30450;52.534;13.398;2023-02-22T18:52:53;17.95;;;4.40;;
44720;SDS011;30450;52.534;13.398;2023-02-22T18:55:20;16.55;;;4.43;;
44720;SDS011;30450;52.534;13.398;2023-02-22T18:57:47;22.50;;;5.20;;
44720;SDS011;30450;52.534;13.398;2023-02-22T19:00:14;16.08;;;4.70;;
44720;SDS011;30450;52.534;13.398;2023-02-22T19:02:40;18.77;;;4.28;;
44720;SDS011;30450;52.534;13.398;2023-02-22T19:05:09;12.43;;;4.22;;
44720;SDS011;30450;52.534;13.398;2023-02-22T19:07:35;22.15;;;4.78;;
44720;SDS011;30450;52.534;13.398;2023-02-22T19:10:01;11.20;;;4.32;;
44720;SDS011;30450;52.534;13.398;2023-02-22T19:12:28;14.00;;;3.95;;
44720;SDS011;30450;52.534;13.398;2023-02-22T19:14:56;14.88;;;4.18;;
44720;SDS011;30450;52.534;13.398;2023-02-22T19:17:22;12.20;;;3.30;;
44720;SDS011;30450;52.534;13.398;2023-02-22T19:19:49;11.98;;;3.30;;
44720;SDS011;30450;52.534;13.398;2023-02-22T19:22:14;20.10;;;4.75;;
44720;SDS011;30450;52.534;13.398;2023-02-22T19:24:41;14.00;;;3.78;;
44720;SDS011;30450;52.534;13.398;2023-02-22T19:27:07;16.52;;;4.63;;
44720;SDS011;30450;52.534;13.398;2023-02-22T19:29:33;10.85;;;4.13;;
44720;SDS011;30450;52.534;13.398;2023-02-22T19:32:02;12.70;;;4.38;;
44720;SDS011;30450;52.534;13.398;2023-02-22T19:34:28;13.07;;;4.07;;
44720;SDS011;30450;52.534;13.398;2023-02-22T19:36:55;14.30;;;4.57;;
44720;SDS011;30450;52.534;13.398;2023-02-22T19:39:25;19.27;;;5.00;;
44720;SDS011;30450;52.534;13.398;2023-02-22T19:41:53;20.00;;;4.85;;
44720;SDS011;30450;52.534;13.398;2023-02-22T19:44:20;14.85;;;4.72;;
44720;SDS011;30450;52.534;13.398;2023-02-22T19:46:49;14.50;;;4.32;;
44720;SDS011;30450;52.534;13.398;2023-02-22T19:49:15;15.85;;;3.67;;
44720;SDS011;30450;52.534;13.398;2023-02-22T19:51:42;15.98;;;3.80;;
44720;SDS011;30450;52.534;13.398;2023-02-22T19:54:10;11.85;;;3.90;;
44720;SDS011;30450;52.534;13.398;2023-02-22T19:56:36;14.38;;;4.82;;
44720;SDS011;30450;52.534;13.398;2023-02-22T19:59:06;18.50;;;4.70;;
44720;SDS011;30450;52.534;13.398;2023-02-22T20:01:37;11.57;;;4.93;;
44720;SDS011;30450;52.534;13.398;2023-02-22T20:04:07;14.18;;;4.28;;
44720;SDS011;30450;52.534;13.398;2023-02-22T20:06:35;17.42;;;4.50;;
44720;SDS011;30450;52.534;13.398;2023-02-22T20:09:06;14.68;;;4.75;;
44720;SDS011;30450;52.534;13.398;2023-02-22T20:11:32;10.10;;;3.93;;
44720;SDS011;30450;52.534;13.398;2023-02-22T20:13:58;14.25;;;3.85;;
44720;SDS011;30450;52.534;13.398;2023-02-22T20:16:25;15.63;;;5.40;;
44720;SDS011;30450;52.534;13.398;2023-02-22T20:18:52;15.30;;;4.65;;
44720;SDS011;30450;52.534;13.398;2023-02-22T20:21:23;21.07;;;3.70;;
44720;SDS011;30450;52.534;13.398;2023-02-22T20:23:50;19.13;;;4.93;;
44720;SDS011;30450;52.534;13.398;2023-02-22T20:26:21;13.38;;;4.47;;
44720;SDS011;30450;52.534;13.398;2023-02-22T20:28:48;22.25;;;5.55;;
44720;SDS011;30450;52.534;13.398;2023-02-22T20:31:15;18.45;;;4.93;;
44720;SDS011;30450;52.534;13.398;2023-02-22T20:33:41;17.42;;;4.53;;
44720;SDS011;30450;52.534;13.398;2023-02-22T20:36:14;18.73;;;5.15;;
44720;SDS011;30450;52.534;13.398;2023-02-22T20:38:41;12.63;;;4.72;;
44720;SDS011;30450;52.534;13.398;2023-02-22T20:41:07;14.05;;;5.40;;
44720;SDS011;30450;52.534;13.398;2023-02-22T20:43:33;19.17;;;5.10;;
44720;SDS011;30450;52.534;13.398;2023-02-22T20:46:00;20.90;;;5.25;;
44720;SDS011;30450;52.534;13.398;2023-02-22T20:48:26;15.52;;;5.30;;
44720;SDS011;30450;52.534;13.398;2023-02-22T20:50:52;26.20;;;5.18;;
44720;SDS011;30450;52.534;13.398;2023-02-22T20:53:18;14.52;;;5.05;;
44720;SDS011;30450;52.534;13.398;2023-02-22T20:55:48;19.33;;;5.85;;
44720;SDS011;30450;52.534;13.398;2023-02-22T20:58:14;24.70;;;6.15;;
44720;SDS011;30450;52.534;13.398;2023-02-22T21:00:40;11.70;;;5.43;;
44720;SDS011;30450;52.534;13.398;2023-02-22T21:03:05;24.25;;;5.80;;
44720;SDS011;30450;52.534;13.398;2023-02-22T21:05:31;16.27;;;5.35;;
44720;SDS011;30450;52.534;13.398;2023-02-22T21:07:57;15.07;;;5.13;;
44720;SDS011;30450;52.534;13.398;2023-02-22T21:10:25;19.40;;;5.65;;
44720;SDS011;30450;52.534;13.398;2023-02-22T21:12:51;21.60;;;5.82;;
44720;SDS011;30450;52.534;13.398;2023-02-22T21:15:17;24.85;;;7.30;;
44720;SDS011;30450;52.534;13.398;2023-02-22T21:17:43;22.05;;;6.30;;
44720;SDS011;30450;52.534;13.398;2023-02-22T21:20:12;17.55;;;6.13;;
44720;SDS011;30450;52.534;13.398;2023-02-22T21:22:38;22.08;;;5.32;;
44720;SDS011;30450;52.534;13.398;2023-02-22T21:25:04;22.85;;;6.25;;
44720;SDS011;30450;52.534;13.398;2023-02-22T21:27:30;18.65;;;6.07;;
44720;SDS011;30450;52.534;13.398;2023-02-22T21:29:55;24.52;;;6.28;;
44720;SDS011;30450;52.534;13.398;2023-02-22T21:32:23;26.42;;;7.00;;
44720;SDS011;30450;52.534;13.398;2023-02-22T21:34:49;28.02;;;6.93;;
44720;SDS011;30450;52.534;13.398;2023-02-22T21:37:15;27.13;;;7.63;;
44720;SDS011;30450;52.534;13.398;2023-02-22T21:39:43;21.58;;;6.95;;
44720;SDS011;30450;52.534;13.398;2023-02-22T21:42:12;19.60;;;6.30;;
44720;SDS011;30450;52.534;13.398;2023-02-22T21:44:38;21.48;;;6.93;;
44720;SDS011;30450;52.534;13.398;2023-02-22T21:47:04;29.45;;;6.88;;
44720;SDS011;30450;52.534;13.398;2023-02-22T21:49:29;23.88;;;6.88;;
44720;SDS011;30450;52.534;13.398;2023-02-22T21:51:55;28.13;;;8.48;;
44720;SDS011;30450;52.534;13.398;2023-02-22T21:54:22;22.08;;;6.72;;
44720;SDS011;30450;52.534;13.398;2023-02-22T21:56:48;21.17;;;8.48;;
44720;SDS011;30450;52.534;13.398;2023-02-22T21:59:15;20.65;;;7.10;;
44720;SDS011;30450;52.534;13.398;2023-02-22T22:01:44;21.08;;;7.45;;
44720;SDS011;30450;52.534;13.398;2023-02-22T22:04:19;25.85;;;8.05;;
44720;SDS011;30450;52.534;13.398;2023-02-22T22:06:46;24.60;;;8.88;;
44720;SDS011;30450;52.534;13.398;2023-02-22T22:09:12;30.70;;;8.43;;
44720;SDS011;30450;52.534;13.398;2023-02-22T22:11:49;20.27;;;6.63;;
44720;SDS011;30450;52.534;13.398;2023-02-22T22:14:16;21.27;;;6.47;;
44720;SDS011;30450;52.534;13.398;2023-02-22T22:16:44;32.22;;;8.98;;
44720;SDS011;30450;52.534;13.398;2023-02-22T22:19:11;30.90;;;8.43;;
44720;SDS011;30450;52.534;13.398;2023-02-22T22:21:37;24.02;;;8.32;;
44720;SDS011;30450;52.534;13.398;2023-02-22T22:24:03;25.83;;;8.40;;
44720;SDS011;30450;52.534;13.398;2023-02-22T22:26:31;21.23;;;8.27;;
44720;SDS011;30450;52.534;13.398;2023-02-22T22:28:59;32.08;;;8.77;;
44720;SDS011;30450;52.534;13.398;2023-02-22T22:31:25;22.17;;;7.78;;
44720;SDS011;30450;52.534;13.398;2023-02-22T22:33:52;25.30;;;8.60;;
44720;SDS011;30450;52.534;13.398;2023-02-22T22:36:19;26.70;;;8.68;;
44720;SDS011;30450;52.534;13.398;2023-02-22T22:38:45;29.73;;;9.90;;
44720;SDS011;30450;52.534;13.398;2023-02-22T22:41:12;26.58;;;7.93;;
44720;SDS011;30450;52.534;13.398;2023-02-22T22:43:39;37.35;;;8.80;;
44720;SDS011;30450;52.534;13.398;2023-02-22T22:46:06;30.70;;;8.98;;
44720;SDS011;30450;52.534;13.398;2023-02-22T22:48:34;23.70;;;8.48;;
44720;SDS011;30450;52.534;13.398;2023-02-22T22:51:02;32.97;;;10.52;;
44720;SDS011;30450;52.534;13.398;2023-02-22T22:53:31;21.92;;;8.68;;
44720;SDS011;30450;52.534;13.398;2023-02-22T22:56:01;21.73;;;8.65;;
44720;SDS011;30450;52.534;13.398;2023-02-22T22:58:33;24.50;;;9.18;;
44720;SDS011;30450;52.534;13.398;2023-02-22T23:00:59;27.38;;;8.93;;
44720;SDS011;30450;52.534;13.398;2023-02-22T23:03:28;26.92;;;9.68;;
44720;SDS011;30450;52.534;13.398;2023-02-22T23:05:54;26.67;;;9.27;;
44720;SDS011;30450;52.534;13.398;2023-02-22T23:08:19;33.60;;;9.70;;
44720;SDS011;30450;52.534;13.398;2023-02-22T23:10:54;28.60;;;9.23;;
44720;SDS011;30450;52.534;13.398;2023-02-22T23:13:21;31.88;;;10.65;;
44720;SDS011;30450;52.534;13.398;2023-02-22T23:15:47;32.90;;;10.98;;
44720;SDS011;30450;52.534;13.398;2023-02-22T23:18:13;34.88;;;10.77;;
44720;SDS011;30450;52.534;13.398;2023-02-22T23:20:42;22.13;;;9.48;;
44720;SDS011;30450;52.534;13.398;2023-02-22T23:23:08;31.73;;;10.82;;
44720;SDS011;30450;52.534;13.398;2023-02-22T23:25:42;31.52;;;11.57;;
44720;SDS011;30450;52.534;13.398;2023-02-22T23:28:08;32.22;;;11.40;;
44720;SDS011;30450;52.534;13.398;2023-02-22T23:30:42;28.27;;;11.38;;
44720;SDS011;30450;52.534;13.398;2023-02-22T23:33:08;27.40;;;11.73;;
44720;SDS011;30450;52.534;13.398;2023-02-22T23:35:34;32.72;;;12.27;;